sensor_id;sensor_type;location;lat;lon;timestamp;temperature;humidity
1137;DHT22;557;48.466;7.950;2023-04-03T00:02:23;6.00;99.90
1137;DHT22;557;48.466;7.950;2023-04-03T00:05:11;6.00;99.90
1137;DHT22;557;48.466;7.950;2023-04-03T00:07:58;5.90;99.90
1137;DHT22;557;48.466;7.950;2023-04-03T00:10:45;5.90;99.90
1137;DHT22;557;48.466;7.950;2023-04-03T00:13:34;5.90;99.90
1137;DHT22;557;48.466;7.950;2023-04-03T00:16:21;5.80;99.90
1137;DHT22;557;48.466;7.950;2023-04-03T00:19:08;5.80;99.90
1137;DHT22;557;48.466;7.950;2023-04-03T00:21:57;5.80;99.90
1137;DHT22;557;48.466;7.950;2023-04-03T00:24:45;5.80;99.90
1137;DHT22;557;48.466;7.950;2023-04-03T00:27:32;5.80;99.90
1137;DHT22;557;48.466;7.950;2023-04-03T00:30:21;5.80;99.90
1137;DHT22;557;48.466;7.950;2023-04-03T00:33:10;5.80;99.90
1137;DHT22;557;48.466;7.950;2023-04-03T00:35:59;5.80;99.90
1137;DHT22;557;48.466;7.950;2023-04-03T00:38:46;5.80;99.90
1137;DHT22;557;48.466;7.950;2023-04-03T00:41:33;5.80;99.90
1137;DHT22;557;48.466;7.950;2023-04-03T00:44:23;5.70;1.00
1137;DHT22;557;48.466;7.950;2023-04-03T00:47:31;5.70;1.00
1137;DHT22;557;48.466;7.950;2023-04-03T00:50:18;5.70;1.00
1137;DHT22;557;48.466;7.950;2023-04-03T00:53:09;5.70;1.00
1137;DHT22;557;48.466;7.950;2023-04-03T00:55:58;5.80;1.00
1137;DHT22;557;48.466;7.950;2023-04-03T00:58:50;5.80;1.00
1137;DHT22;557;48.466;7.950;2023-04-03T01:01:38;5.70;1.00
1137;DHT22;557;48.466;7.950;2023-04-03T01:04:28;5.70;1.00
1137;DHT22;557;48.466;7.950;2023-04-03T01:07:18;5.70;1.00
1137;DHT22;557;48.466;7.950;2023-04-03T01:10:09;5.70;1.00
1137;DHT22;557;48.466;7.950;2023-04-03T01:12:57;5.70;1.00
1137;DHT22;557;48.466;7.950;2023-04-03T01:15:46;5.70;1.00
1137;DHT22;557;48.466;7.950;2023-04-03T01:18:36;5.80;1.00
1137;DHT22;557;48.466;7.950;2023-04-03T01:22:07;5.70;1.00
1137;DHT22;557;48.466;7.950;2023-04-03T01:24:59;5.70;99.90
1137;DHT22;557;48.466;7.950;2023-04-03T01:27:46;5.70;99.90
1137;DHT22;557;48.466;7.950;2023-04-03T01:30:36;5.60;99.90
1137;DHT22;557;48.466;7.950;2023-04-03T01:33:28;5.60;1.00
1137;DHT22;557;48.466;7.950;2023-04-03T01:36:17;5.50;1.00
1137;DHT22;557;48.466;7.950;2023-04-03T01:39:06;5.50;1.00
1137;DHT22;557;48.466;7.950;2023-04-03T01:41:53;5.60;1.00
1137;DHT22;557;48.466;7.950;2023-04-03T01:44:41;5.60;1.00
1137;DHT22;557;48.466;7.950;2023-04-03T01:47:28;5.60;1.00
1137;DHT22;557;48.466;7.950;2023-04-03T01:50:17;5.50;1.00
1137;DHT22;557;48.466;7.950;2023-04-03T01:53:04;5.50;1.00
1137;DHT22;557;48.466;7.950;2023-04-03T01:55:52;5.50;1.00
1137;DHT22;557;48.466;7.950;2023-04-03T01:58:39;5.50;1.00
1137;DHT22;557;48.466;7.950;2023-04-03T02:01:26;5.50;1.00
1137;DHT22;557;48.466;7.950;2023-04-03T02:04:14;5.50;1.00
1137;DHT22;557;48.466;7.950;2023-04-03T02:07:02;5.50;1.00
1137;DHT22;557;48.466;7.950;2023-04-03T02:09:49;5.50;1.00
1137;DHT22;557;48.466;7.950;2023-04-03T02:12:37;5.50;1.00
1137;DHT22;557;48.466;7.950;2023-04-03T02:15:24;5.50;1.00
1137;DHT22;557;48.466;7.950;2023-04-03T02:18:12;5.50;1.00
1137;DHT22;557;48.466;7.950;2023-04-03T02:20:59;5.50;99.90
1137;DHT22;557;48.466;7.950;2023-04-03T02:23:48;5.40;99.90
1137;DHT22;557;48.466;7.950;2023-04-03T02:26:35;5.40;99.90
1137;DHT22;557;48.466;7.950;2023-04-03T02:29:23;5.40;99.90
1137;DHT22;557;48.466;7.950;2023-04-03T02:32:10;5.40;99.90
1137;DHT22;557;48.466;7.950;2023-04-03T02:34:58;5.40;99.90
1137;DHT22;557;48.466;7.950;2023-04-03T02:37:45;5.40;99.90
1137;DHT22;557;48.466;7.950;2023-04-03T02:40:34;5.30;99.90
1137;DHT22;557;48.466;7.950;2023-04-03T02:43:21;5.30;99.90
1137;DHT22;557;48.466;7.950;2023-04-03T02:46:09;5.30;99.90
1137;DHT22;557;48.466;7.950;2023-04-03T02:48:56;5.30;99.90
1137;DHT22;557;48.466;7.950;2023-04-03T02:51:43;5.30;99.90
1137;DHT22;557;48.466;7.950;2023-04-03T02:54:31;5.30;99.90
1137;DHT22;557;48.466;7.950;2023-04-03T02:57:20;5.30;99.90
1137;DHT22;557;48.466;7.950;2023-04-03T03:00:08;5.30;99.90
1137;DHT22;557;48.466;7.950;2023-04-03T03:02:56;5.30;99.90
1137;DHT22;557;48.466;7.950;2023-04-03T03:05:43;5.20;99.90
1137;DHT22;557;48.466;7.950;2023-04-03T03:08:31;5.20;1.00
1137;DHT22;557;48.466;7.950;2023-04-03T03:11:19;5.10;1.00
1137;DHT22;557;48.466;7.950;2023-04-03T03:14:08;5.20;1.00
1137;DHT22;557;48.466;7.950;2023-04-03T03:16:55;5.10;1.00
1137;DHT22;557;48.466;7.950;2023-04-03T03:19:43;5.10;1.00
1137;DHT22;557;48.466;7.950;2023-04-03T03:22:31;5.20;1.00
1137;DHT22;557;48.466;7.950;2023-04-03T03:25:19;5.10;1.00
1137;DHT22;557;48.466;7.950;2023-04-03T03:28:06;5.20;1.00
1137;DHT22;557;48.466;7.950;2023-04-03T03:30:55;5.20;1.00
1137;DHT22;557;48.466;7.950;2023-04-03T03:33:42;5.20;1.00
1137;DHT22;557;48.466;7.950;2023-04-03T03:36:30;5.20;1.00
1137;DHT22;557;48.466;7.950;2023-04-03T03:39:17;5.10;1.00
1137;DHT22;557;48.466;7.950;2023-04-03T03:42:04;5.10;1.00
1137;DHT22;557;48.466;7.950;2023-04-03T03:44:52;5.20;1.00
1137;DHT22;557;48.466;7.950;2023-04-03T03:47:40;5.10;1.00
1137;DHT22;557;48.466;7.950;2023-04-03T03:50:28;5.20;1.00
1137;DHT22;557;48.466;7.950;2023-04-03T03:53:15;5.10;1.00
1137;DHT22;557;48.466;7.950;2023-04-03T03:56:04;5.10;1.00
1137;DHT22;557;48.466;7.950;2023-04-03T03:58:52;5.10;1.00
1137;DHT22;557;48.466;7.950;2023-04-03T04:01:39;5.10;1.00
1137;DHT22;557;48.466;7.950;2023-04-03T04:04:28;5.10;1.00
1137;DHT22;557;48.466;7.950;2023-04-03T04:07:15;5.10;1.00
1137;DHT22;557;48.466;7.950;2023-04-03T04:10:03;5.00;1.00
1137;DHT22;557;48.466;7.950;2023-04-03T04:12:51;5.00;1.00
1137;DHT22;557;48.466;7.950;2023-04-03T04:15:38;5.00;1.00
1137;DHT22;557;48.466;7.950;2023-04-03T04:18:26;5.00;1.00
1137;DHT22;557;48.466;7.950;2023-04-03T04:21:14;4.90;1.00
1137;DHT22;557;48.466;7.950;2023-04-03T04:24:02;4.90;1.00
1137;DHT22;557;48.466;7.950;2023-04-03T04:26:49;4.80;1.00
1137;DHT22;557;48.466;7.950;2023-04-03T04:29:37;4.80;1.00
1137;DHT22;557;48.466;7.950;2023-04-03T04:32:24;4.80;1.00
1137;DHT22;557;48.466;7.950;2023-04-03T04:35:11;4.70;1.00
1137;DHT22;557;48.466;7.950;2023-04-03T04:38:00;4.70;1.00
1137;DHT22;557;48.466;7.950;2023-04-03T04:40:48;4.70;1.00
1137;DHT22;557;48.466;7.950;2023-04-03T04:43:36;4.60;1.00
1137;DHT22;557;48.466;7.950;2023-04-03T04:46:23;4.50;1.00
1137;DHT22;557;48.466;7.950;2023-04-03T04:49:11;4.50;1.00
1137;DHT22;557;48.466;7.950;2023-04-03T04:51:58;4.50;1.00
1137;DHT22;557;48.466;7.950;2023-04-03T04:54:46;4.50;1.00
1137;DHT22;557;48.466;7.950;2023-04-03T04:57:34;4.40;1.00
1137;DHT22;557;48.466;7.950;2023-04-03T05:00:22;4.40;1.00
1137;DHT22;557;48.466;7.950;2023-04-03T05:03:10;4.30;1.00
1137;DHT22;557;48.466;7.950;2023-04-03T05:05:58;4.30;1.00
1137;DHT22;557;48.466;7.950;2023-04-03T05:08:46;4.20;1.00
1137;DHT22;557;48.466;7.950;2023-04-03T05:11:34;4.20;1.00
1137;DHT22;557;48.466;7.950;2023-04-03T05:14:22;4.20;1.00
1137;DHT22;557;48.466;7.950;2023-04-03T05:17:09;4.20;1.00
1137;DHT22;557;48.466;7.950;2023-04-03T05:19:56;4.10;1.00
1137;DHT22;557;48.466;7.950;2023-04-03T05:22:44;4.20;1.00
1137;DHT22;557;48.466;7.950;2023-04-03T05:25:31;4.20;1.00
1137;DHT22;557;48.466;7.950;2023-04-03T05:28:20;4.20;1.00
1137;DHT22;557;48.466;7.950;2023-04-03T05:31:08;4.30;1.00
1137;DHT22;557;48.466;7.950;2023-04-03T05:33:56;4.30;1.00
1137;DHT22;557;48.466;7.950;2023-04-03T05:36:43;4.40;1.00
1137;DHT22;557;48.466;7.950;2023-04-03T05:39:31;4.50;1.00
1137;DHT22;557;48.466;7.950;2023-04-03T05:42:19;4.50;1.00
1137;DHT22;557;48.466;7.950;2023-04-03T05:45:08;4.70;1.00
1137;DHT22;557;48.466;7.950;2023-04-03T05:47:55;4.70;1.00
1137;DHT22;557;48.466;7.950;2023-04-03T05:50:43;4.90;1.00
1137;DHT22;557;48.466;7.950;2023-04-03T05:53:31;5.00;1.00
1137;DHT22;557;48.466;7.950;2023-04-03T05:56:20;5.20;99.90
1137;DHT22;557;48.466;7.950;2023-04-03T05:59:07;5.30;1.00
1137;DHT22;557;48.466;7.950;2023-04-03T06:01:56;5.40;99.90
1137;DHT22;557;48.466;7.950;2023-04-03T06:04:44;5.50;19.00
1137;DHT22;557;48.466;7.950;2023-04-03T06:07:31;5.70;1.00
1137;DHT22;557;48.466;7.950;2023-04-03T06:10:18;5.90;99.90
1137;DHT22;557;48.466;7.950;2023-04-03T06:13:06;6.20;99.90
1137;DHT22;557;48.466;7.950;2023-04-03T06:15:53;6.30;99.90
1137;DHT22;557;48.466;7.950;2023-04-03T06:18:42;6.60;1.00
1137;DHT22;557;48.466;7.950;2023-04-03T06:21:30;6.80;99.90
1137;DHT22;557;48.466;7.950;2023-04-03T06:24:18;7.00;1.00
1137;DHT22;557;48.466;7.950;2023-04-03T06:27:05;7.30;1.00
1137;DHT22;557;48.466;7.950;2023-04-03T06:29:53;7.30;1.00
1137;DHT22;557;48.466;7.950;2023-04-03T06:32:41;7.40;1.00
1137;DHT22;557;48.466;7.950;2023-04-03T06:35:30;7.60;99.90
1137;DHT22;557;48.466;7.950;2023-04-03T06:38:17;7.60;99.90
1137;DHT22;557;48.466;7.950;2023-04-03T06:41:04;7.70;99.90
1137;DHT22;557;48.466;7.950;2023-04-03T06:43:53;7.70;99.90
1137;DHT22;557;48.466;7.950;2023-04-03T06:46:43;7.70;99.90
1137;DHT22;557;48.466;7.950;2023-04-03T06:49:31;7.70;99.90
1137;DHT22;557;48.466;7.950;2023-04-03T06:52:20;7.60;99.90
1137;DHT22;557;48.466;7.950;2023-04-03T06:55:08;7.70;99.90
1137;DHT22;557;48.466;7.950;2023-04-03T06:57:55;7.80;99.90
1137;DHT22;557;48.466;7.950;2023-04-03T07:00:43;7.90;99.90
1137;DHT22;557;48.466;7.950;2023-04-03T07:03:30;8.00;99.90
1137;DHT22;557;48.466;7.950;2023-04-03T07:06:18;8.20;99.90
1137;DHT22;557;48.466;7.950;2023-04-03T07:09:07;8.20;99.90
1137;DHT22;557;48.466;7.950;2023-04-03T07:11:55;8.20;99.90
1137;DHT22;557;48.466;7.950;2023-04-03T07:14:42;8.00;99.90
1137;DHT22;557;48.466;7.950;2023-04-03T07:17:29;8.00;99.90
1137;DHT22;557;48.466;7.950;2023-04-03T07:20:17;8.00;99.90
1137;DHT22;557;48.466;7.950;2023-04-03T07:23:04;7.90;99.90
1137;DHT22;557;48.466;7.950;2023-04-03T07:25:53;7.90;99.90
1137;DHT22;557;48.466;7.950;2023-04-03T07:28:40;7.90;99.90
1137;DHT22;557;48.466;7.950;2023-04-03T07:31:28;7.80;99.90
1137;DHT22;557;48.466;7.950;2023-04-03T07:34:15;7.70;99.90
1137;DHT22;557;48.466;7.950;2023-04-03T07:37:02;7.70;99.90
1137;DHT22;557;48.466;7.950;2023-04-03T07:39:50;7.60;99.90
1137;DHT22;557;48.466;7.950;2023-04-03T07:42:39;7.80;99.90
1137;DHT22;557;48.466;7.950;2023-04-03T07:45:27;7.80;99.90
1137;DHT22;557;48.466;7.950;2023-04-03T07:48:14;7.80;99.90
1137;DHT22;557;48.466;7.950;2023-04-03T07:51:03;7.80;99.90
1137;DHT22;557;48.466;7.950;2023-04-03T07:53:50;7.90;99.90
1137;DHT22;557;48.466;7.950;2023-04-03T07:56:37;7.90;99.90
1137;DHT22;557;48.466;7.950;2023-04-03T07:59:26;7.70;99.90
1137;DHT22;557;48.466;7.950;2023-04-03T08:02:13;7.70;99.90
1137;DHT22;557;48.466;7.950;2023-04-03T08:05:01;7.90;99.90
1137;DHT22;557;48.466;7.950;2023-04-03T08:07:48;8.00;99.90
1137;DHT22;557;48.466;7.950;2023-04-03T08:10:36;8.10;99.90
1137;DHT22;557;48.466;7.950;2023-04-03T08:13:23;8.40;99.90
1137;DHT22;557;48.466;7.950;2023-04-03T08:16:14;8.40;99.90
1137;DHT22;557;48.466;7.950;2023-04-03T08:19:03;8.50;99.90
1137;DHT22;557;48.466;7.950;2023-04-03T08:21:50;8.70;99.90
1137;DHT22;557;48.466;7.950;2023-04-03T08:24:38;8.90;99.90
1137;DHT22;557;48.466;7.950;2023-04-03T08:27:25;8.80;99.90
1137;DHT22;557;48.466;7.950;2023-04-03T08:30:13;8.90;99.90
1137;DHT22;557;48.466;7.950;2023-04-03T08:33:03;8.80;99.90
1137;DHT22;557;48.466;7.950;2023-04-03T08:35:50;8.60;99.90
1137;DHT22;557;48.466;7.950;2023-04-03T08:38:37;8.40;99.90
1137;DHT22;557;48.466;7.950;2023-04-03T08:41:29;8.40;99.90
1137;DHT22;557;48.466;7.950;2023-04-03T08:44:24;8.70;99.90
1137;DHT22;557;48.466;7.950;2023-04-03T08:47:20;9.10;99.90
1137;DHT22;557;48.466;7.950;2023-04-03T08:50:15;9.00;99.90
1137;DHT22;557;48.466;7.950;2023-04-03T08:53:04;9.30;99.90
1137;DHT22;557;48.466;7.950;2023-04-03T08:55:53;9.90;99.90
1137;DHT22;557;48.466;7.950;2023-04-03T08:58:44;10.40;99.90
1137;DHT22;557;48.466;7.950;2023-04-03T09:01:35;10.80;99.90
1137;DHT22;557;48.466;7.950;2023-04-03T09:04:22;11.10;95.70
1137;DHT22;557;48.466;7.950;2023-04-03T09:07:15;11.40;95.20
1137;DHT22;557;48.466;7.950;2023-04-03T09:10:08;11.10;91.10
1137;DHT22;557;48.466;7.950;2023-04-03T09:13:00;10.40;86.80
1137;DHT22;557;48.466;7.950;2023-04-03T09:15:48;10.40;85.00
1137;DHT22;557;48.466;7.950;2023-04-03T09:18:39;10.80;74.00
1137;DHT22;557;48.466;7.950;2023-04-03T09:21:35;11.00;86.50
1137;DHT22;557;48.466;7.950;2023-04-03T09:24:25;10.80;60.30
1137;DHT22;557;48.466;7.950;2023-04-03T09:27:12;11.30;70.20
1137;DHT22;557;48.466;7.950;2023-04-03T09:29:59;11.40;61.30
1137;DHT22;557;48.466;7.950;2023-04-03T09:32:48;11.20;76.60
1137;DHT22;557;48.466;7.950;2023-04-03T09:35:37;11.00;59.10
1137;DHT22;557;48.466;7.950;2023-04-03T09:38:24;10.80;82.00
1137;DHT22;557;48.466;7.950;2023-04-03T09:41:16;10.40;61.00
1137;DHT22;557;48.466;7.950;2023-04-03T09:44:20;10.20;60.60
1137;DHT22;557;48.466;7.950;2023-04-03T09:47:18;10.20;55.90
1137;DHT22;557;48.466;7.950;2023-04-03T09:50:19;10.10;59.40
1137;DHT22;557;48.466;7.950;2023-04-03T09:53:11;10.20;57.80
1137;DHT22;557;48.466;7.950;2023-04-03T09:56:23;10.30;57.20
1137;DHT22;557;48.466;7.950;2023-04-03T09:59:14;10.60;61.10
1137;DHT22;557;48.466;7.950;2023-04-03T10:02:04;10.80;62.50
1137;DHT22;557;48.466;7.950;2023-04-03T10:05:31;10.80;59.30
1137;DHT22;557;48.466;7.950;2023-04-03T10:08:25;11.00;65.60
1137;DHT22;557;48.466;7.950;2023-04-03T10:11:15;12.00;65.90
1137;DHT22;557;48.466;7.950;2023-04-03T10:14:04;12.00;60.30
1137;DHT22;557;48.466;7.950;2023-04-03T10:16:59;11.80;59.20
1137;DHT22;557;48.466;7.950;2023-04-03T10:19:52;11.70;53.50
1137;DHT22;557;48.466;7.950;2023-04-03T10:22:46;11.30;48.50
1137;DHT22;557;48.466;7.950;2023-04-03T10:25:42;11.40;51.50
1137;DHT22;557;48.466;7.950;2023-04-03T10:28:35;11.40;49.30
1137;DHT22;557;48.466;7.950;2023-04-03T10:31:31;11.40;49.10
1137;DHT22;557;48.466;7.950;2023-04-03T10:34:23;11.50;46.40
1137;DHT22;557;48.466;7.950;2023-04-03T10:37:17;11.60;50.00
1137;DHT22;557;48.466;7.950;2023-04-03T10:40:18;11.60;45.40
1137;DHT22;557;48.466;7.950;2023-04-03T10:43:14;11.50;46.40
1137;DHT22;557;48.466;7.950;2023-04-03T10:46:09;12.20;45.60
1137;DHT22;557;48.466;7.950;2023-04-03T10:49:10;12.80;44.50
1137;DHT22;557;48.466;7.950;2023-04-03T10:52:06;13.10;46.80
1137;DHT22;557;48.466;7.950;2023-04-03T10:55:02;13.90;48.30
1137;DHT22;557;48.466;7.950;2023-04-03T10:57:56;14.20;44.10
1137;DHT22;557;48.466;7.950;2023-04-03T11:00:46;14.40;42.80
1137;DHT22;557;48.466;7.950;2023-04-03T11:03:36;14.30;33.50
1137;DHT22;557;48.466;7.950;2023-04-03T11:06:32;13.70;28.30
1137;DHT22;557;48.466;7.950;2023-04-03T11:09:25;13.60;29.30
1137;DHT22;557;48.466;7.950;2023-04-03T11:12:15;13.30;24.90
1137;DHT22;557;48.466;7.950;2023-04-03T11:15:05;12.80;24.70
1137;DHT22;557;48.466;7.950;2023-04-03T11:17:55;12.70;26.60
1137;DHT22;557;48.466;7.950;2023-04-03T11:20:52;12.60;23.40
1137;DHT22;557;48.466;7.950;2023-04-03T11:23:42;12.40;20.90
1137;DHT22;557;48.466;7.950;2023-04-03T11:26:32;12.10;19.80
1137;DHT22;557;48.466;7.950;2023-04-03T11:29:25;12.10;20.60
1137;DHT22;557;48.466;7.950;2023-04-03T11:32:31;12.60;25.70
1137;DHT22;557;48.466;7.950;2023-04-03T11:35:23;13.00;22.30
1137;DHT22;557;48.466;7.950;2023-04-03T11:38:18;12.70;20.20
1137;DHT22;557;48.466;7.950;2023-04-03T11:41:10;12.60;20.90
1137;DHT22;557;48.466;7.950;2023-04-03T11:44:00;12.30;14.20
1137;DHT22;557;48.466;7.950;2023-04-03T11:46:51;11.50;11.90
1137;DHT22;557;48.466;7.950;2023-04-03T11:49:53;11.60;15.20
1137;DHT22;557;48.466;7.950;2023-04-03T11:53:01;11.80;16.80
1137;DHT22;557;48.466;7.950;2023-04-03T11:55:56;11.80;15.10
1137;DHT22;557;48.466;7.950;2023-04-03T11:59:15;11.70;14.90
1137;DHT22;557;48.466;7.950;2023-04-03T12:02:35;11.60;11.70
1137;DHT22;557;48.466;7.950;2023-04-03T12:05:28;11.40;12.30
1137;DHT22;557;48.466;7.950;2023-04-03T12:08:21;11.30;13.60
1137;DHT22;557;48.466;7.950;2023-04-03T12:11:25;12.10;16.30
1137;DHT22;557;48.466;7.950;2023-04-03T12:14:15;13.10;19.20
1137;DHT22;557;48.466;7.950;2023-04-03T12:17:12;13.30;19.80
1137;DHT22;557;48.466;7.950;2023-04-03T12:23:30;12.80;12.40
1137;DHT22;557;48.466;7.950;2023-04-03T12:26:20;13.30;15.40
1137;DHT22;557;48.466;7.950;2023-04-03T12:29:17;13.40;14.70
1137;DHT22;557;48.466;7.950;2023-04-03T12:32:11;12.70;11.00
1137;DHT22;557;48.466;7.950;2023-04-03T12:35:14;12.10;8.50
1137;DHT22;557;48.466;7.950;2023-04-03T12:38:40;11.50;5.90
1137;DHT22;557;48.466;7.950;2023-04-03T12:41:37;11.30;6.40
1137;DHT22;557;48.466;7.950;2023-04-03T12:44:40;11.00;5.70
1137;DHT22;557;48.466;7.950;2023-04-03T12:47:33;11.20;6.80
1137;DHT22;557;48.466;7.950;2023-04-03T12:50:26;11.30;6.20
1137;DHT22;557;48.466;7.950;2023-04-03T12:53:18;12.30;9.50
1137;DHT22;557;48.466;7.950;2023-04-03T12:56:20;13.10;10.40
1137;DHT22;557;48.466;7.950;2023-04-03T12:59:15;12.90;7.50
1137;DHT22;557;48.466;7.950;2023-04-03T13:02:22;12.50;5.70
1137;DHT22;557;48.466;7.950;2023-04-03T13:05:16;12.10;3.90
1137;DHT22;557;48.466;7.950;2023-04-03T13:08:09;11.60;2.40
1137;DHT22;557;48.466;7.950;2023-04-03T13:11:00;11.20;1.30
1137;DHT22;557;48.466;7.950;2023-04-03T13:13:59;11.10;1.00
1137;DHT22;557;48.466;7.950;2023-04-03T13:16:56;10.90;1.00
1137;DHT22;557;48.466;7.950;2023-04-03T13:19:45;10.80;7.80
1137;DHT22;557;48.466;7.950;2023-04-03T13:22:35;10.80;1.00
1137;DHT22;557;48.466;7.950;2023-04-03T13:25:28;10.90;1.00
1137;DHT22;557;48.466;7.950;2023-04-03T13:28:20;10.60;1.00
1137;DHT22;557;48.466;7.950;2023-04-03T13:31:18;10.70;1.00
1137;DHT22;557;48.466;7.950;2023-04-03T13:34:10;10.90;1.00
1137;DHT22;557;48.466;7.950;2023-04-03T13:37:00;10.90;1.00
1137;DHT22;557;48.466;7.950;2023-04-03T13:39:59;10.80;1.00
1137;DHT22;557;48.466;7.950;2023-04-03T13:42:59;11.00;1.00
1137;DHT22;557;48.466;7.950;2023-04-03T13:45:58;11.70;5.40
1137;DHT22;557;48.466;7.950;2023-04-03T13:48:47;13.10;8.90
1137;DHT22;557;48.466;7.950;2023-04-03T13:51:39;13.30;10.20
1137;DHT22;557;48.466;7.950;2023-04-03T13:54:31;12.80;5.30
1137;DHT22;557;48.466;7.950;2023-04-03T13:57:18;12.30;1.00
1137;DHT22;557;48.466;7.950;2023-04-03T14:00:30;11.90;1.00
1137;DHT22;557;48.466;7.950;2023-04-03T14:03:22;11.40;1.00
1137;DHT22;557;48.466;7.950;2023-04-03T14:06:12;11.40;1.00
1137;DHT22;557;48.466;7.950;2023-04-03T14:08:59;11.30;1.00
1137;DHT22;557;48.466;7.950;2023-04-03T14:11:49;11.10;1.00
1137;DHT22;557;48.466;7.950;2023-04-03T14:14:37;11.10;1.00
1137;DHT22;557;48.466;7.950;2023-04-03T14:17:26;11.00;1.00
1137;DHT22;557;48.466;7.950;2023-04-03T14:20:16;10.80;1.00
1137;DHT22;557;48.466;7.950;2023-04-03T14:23:04;10.70;1.00
1137;DHT22;557;48.466;7.950;2023-04-03T14:25:52;10.60;1.00
1137;DHT22;557;48.466;7.950;2023-04-03T14:28:42;10.60;1.00
1137;DHT22;557;48.466;7.950;2023-04-03T14:31:29;10.60;1.00
1137;DHT22;557;48.466;7.950;2023-04-03T14:34:17;10.40;1.00
1137;DHT22;557;48.466;7.950;2023-04-03T14:37:04;10.20;1.00
1137;DHT22;557;48.466;7.950;2023-04-03T14:39:53;10.10;1.00
1137;DHT22;557;48.466;7.950;2023-04-03T14:42:41;10.00;1.00
1137;DHT22;557;48.466;7.950;2023-04-03T14:45:30;9.90;1.00
1137;DHT22;557;48.466;7.950;2023-04-03T14:48:20;9.90;1.00
1137;DHT22;557;48.466;7.950;2023-04-03T14:51:10;10.00;1.00
1137;DHT22;557;48.466;7.950;2023-04-03T14:53:58;9.90;1.00
1137;DHT22;557;48.466;7.950;2023-04-03T14:56:45;9.80;1.00
1137;DHT22;557;48.466;7.950;2023-04-03T14:59:33;9.60;1.00
1137;DHT22;557;48.466;7.950;2023-04-03T15:02:30;9.50;1.00
1137;DHT22;557;48.466;7.950;2023-04-03T15:05:18;9.40;1.00
1137;DHT22;557;48.466;7.950;2023-04-03T15:08:08;9.50;1.00
1137;DHT22;557;48.466;7.950;2023-04-03T15:11:01;9.80;1.00
1137;DHT22;557;48.466;7.950;2023-04-03T15:13:48;10.40;1.00
1137;DHT22;557;48.466;7.950;2023-04-03T15:16:36;11.20;1.00
1137;DHT22;557;48.466;7.950;2023-04-03T15:19:24;11.20;1.00
1137;DHT22;557;48.466;7.950;2023-04-03T15:22:13;11.00;1.00
1137;DHT22;557;48.466;7.950;2023-04-03T15:25:01;10.60;1.00
1137;DHT22;557;48.466;7.950;2023-04-03T15:27:49;10.10;1.00
1137;DHT22;557;48.466;7.950;2023-04-03T15:30:39;9.90;1.00
1137;DHT22;557;48.466;7.950;2023-04-03T15:33:27;9.70;1.00
1137;DHT22;557;48.466;7.950;2023-04-03T15:36:16;9.50;1.00
1137;DHT22;557;48.466;7.950;2023-04-03T15:39:03;9.40;1.00
1137;DHT22;557;48.466;7.950;2023-04-03T15:41:51;9.20;1.00
1137;DHT22;557;48.466;7.950;2023-04-03T15:44:39;9.10;1.00
1137;DHT22;557;48.466;7.950;2023-04-03T15:47:27;9.00;1.00
1137;DHT22;557;48.466;7.950;2023-04-03T15:50:14;8.90;1.00
1137;DHT22;557;48.466;7.950;2023-04-03T15:53:03;9.10;1.00
1137;DHT22;557;48.466;7.950;2023-04-03T15:55:51;10.20;1.00
1137;DHT22;557;48.466;7.950;2023-04-03T15:58:38;13.60;7.50
1137;DHT22;557;48.466;7.950;2023-04-03T16:01:26;13.80;1.40
1137;DHT22;557;48.466;7.950;2023-04-03T16:04:13;13.20;1.00
1137;DHT22;557;48.466;7.950;2023-04-03T16:07:02;12.20;1.00
1137;DHT22;557;48.466;7.950;2023-04-03T16:09:51;11.30;1.00
1137;DHT22;557;48.466;7.950;2023-04-03T16:12:39;10.40;1.00
1137;DHT22;557;48.466;7.950;2023-04-03T16:15:27;9.80;1.00
1137;DHT22;557;48.466;7.950;2023-04-03T16:18:14;9.30;1.00
1137;DHT22;557;48.466;7.950;2023-04-03T16:21:06;10.70;1.00
1137;DHT22;557;48.466;7.950;2023-04-03T16:23:55;15.10;4.30
1137;DHT22;557;48.466;7.950;2023-04-03T16:26:44;18.60;18.40
1137;DHT22;557;48.466;7.950;2023-04-03T16:29:31;21.10;16.30
1137;DHT22;557;48.466;7.950;2023-04-03T16:32:19;22.60;18.40
1137;DHT22;557;48.466;7.950;2023-04-03T16:35:07;24.30;18.80
1137;DHT22;557;48.466;7.950;2023-04-03T16:37:56;25.30;18.50
1137;DHT22;557;48.466;7.950;2023-04-03T16:40:43;22.10;1.00
1137;DHT22;557;48.466;7.950;2023-04-03T16:43:32;18.80;1.00
1137;DHT22;557;48.466;7.950;2023-04-03T16:46:19;16.10;1.00
1137;DHT22;557;48.466;7.950;2023-04-03T16:49:06;14.20;1.00
1137;DHT22;557;48.466;7.950;2023-04-03T16:51:54;12.60;1.00
1137;DHT22;557;48.466;7.950;2023-04-03T16:54:41;11.30;1.00
1137;DHT22;557;48.466;7.950;2023-04-03T16:57:28;10.90;1.00
1137;DHT22;557;48.466;7.950;2023-04-03T17:00:18;10.50;1.00
1137;DHT22;557;48.466;7.950;2023-04-03T17:03:05;10.20;1.00
1137;DHT22;557;48.466;7.950;2023-04-03T17:05:52;9.80;1.00
1137;DHT22;557;48.466;7.950;2023-04-03T17:08:41;9.40;1.00
1137;DHT22;557;48.466;7.950;2023-04-03T17:11:29;9.20;1.00
1137;DHT22;557;48.466;7.950;2023-04-03T17:14:16;9.00;1.00
1137;DHT22;557;48.466;7.950;2023-04-03T17:17:05;8.90;1.00
1137;DHT22;557;48.466;7.950;2023-04-03T17:19:54;8.80;1.00
1137;DHT22;557;48.466;7.950;2023-04-03T17:22:41;8.60;1.00
1137;DHT22;557;48.466;7.950;2023-04-03T17:25:30;8.50;1.00
1137;DHT22;557;48.466;7.950;2023-04-03T17:28:17;8.30;1.00
1137;DHT22;557;48.466;7.950;2023-04-03T17:31:05;8.10;1.00
1137;DHT22;557;48.466;7.950;2023-04-03T17:33:54;8.00;1.00
1137;DHT22;557;48.466;7.950;2023-04-03T17:36:42;7.90;1.00
1137;DHT22;557;48.466;7.950;2023-04-03T17:39:29;7.70;1.00
1137;DHT22;557;48.466;7.950;2023-04-03T17:42:16;7.60;1.00
1137;DHT22;557;48.466;7.950;2023-04-03T17:45:05;7.50;1.00
1137;DHT22;557;48.466;7.950;2023-04-03T17:47:52;7.30;1.00
1137;DHT22;557;48.466;7.950;2023-04-03T17:50:41;7.20;1.00
1137;DHT22;557;48.466;7.950;2023-04-03T17:53:28;7.20;1.00
1137;DHT22;557;48.466;7.950;2023-04-03T17:56:17;7.00;1.00
1137;DHT22;557;48.466;7.950;2023-04-03T17:59:04;6.90;1.00
1137;DHT22;557;48.466;7.950;2023-04-03T18:01:54;6.80;1.00
1137;DHT22;557;48.466;7.950;2023-04-03T18:04:42;6.90;1.00
1137;DHT22;557;48.466;7.950;2023-04-03T18:07:30;6.80;1.00
1137;DHT22;557;48.466;7.950;2023-04-03T18:10:18;6.80;1.00
1137;DHT22;557;48.466;7.950;2023-04-03T18:13:06;6.80;1.00
1137;DHT22;557;48.466;7.950;2023-04-03T18:15:53;6.80;1.00
1137;DHT22;557;48.466;7.950;2023-04-03T18:18:41;6.80;1.00
1137;DHT22;557;48.466;7.950;2023-04-03T18:21:28;6.70;1.00
1137;DHT22;557;48.466;7.950;2023-04-03T18:24:18;6.60;1.00
1137;DHT22;557;48.466;7.950;2023-04-03T18:27:09;6.50;1.00
1137;DHT22;557;48.466;7.950;2023-04-03T18:30:00;6.40;1.00
1137;DHT22;557;48.466;7.950;2023-04-03T18:32:48;6.30;1.00
1137;DHT22;557;48.466;7.950;2023-04-03T18:35:36;6.30;1.00
1137;DHT22;557;48.466;7.950;2023-04-03T18:38:23;6.10;1.00
1137;DHT22;557;48.466;7.950;2023-04-03T18:41:12;6.00;1.00
1137;DHT22;557;48.466;7.950;2023-04-03T18:44:02;5.90;1.00
1137;DHT22;557;48.466;7.950;2023-04-03T18:46:50;5.70;1.00
1137;DHT22;557;48.466;7.950;2023-04-03T18:49:39;5.70;1.00
1137;DHT22;557;48.466;7.950;2023-04-03T18:52:27;5.60;1.00
1137;DHT22;557;48.466;7.950;2023-04-03T18:55:15;5.50;2.20
1137;DHT22;557;48.466;7.950;2023-04-03T18:58:05;5.40;4.10
1137;DHT22;557;48.466;7.950;2023-04-03T19:00:53;5.30;3.40
1137;DHT22;557;48.466;7.950;2023-04-03T19:03:41;5.40;27.70
1137;DHT22;557;48.466;7.950;2023-04-03T19:06:28;5.30;14.50
1137;DHT22;557;48.466;7.950;2023-04-03T19:09:15;5.20;21.90
1137;DHT22;557;48.466;7.950;2023-04-03T19:12:03;5.10;22.40
1137;DHT22;557;48.466;7.950;2023-04-03T19:14:52;5.10;20.20